Time;durP1;ratioP1;P1;durP2;ratioP2;P2;SDS_P1;SDS_P2;PMS_P1;PMS_P2;Temp;Humidity;BMP_temperature;BMP_pressure;BME280_temperature;BME280_humidity;BME280_pressure;Samples;Min_cycle;Max_cycle;Signal;HPM_P1;HPM_P2
2021/04/21 00:01:40;;;;;;;5.80;4.70;;;10.90;89.50;18.70;99310.00;;;;5017383;28;20206;-68
2021/04/21 00:04:08;;;;;;;5.90;4.70;;;10.90;89.50;18.80;99307.00;;;;5016859;28;20189;-69
2021/04/21 00:06:35;;;;;;;6.73;5.63;;;10.90;89.50;18.70;99312.00;;;;5017291;28;20509;-69
2021/04/21 00:09:04;;;;;;;6.97;5.77;;;10.90;89.50;18.90;99304.00;;;;5033274;28;20562;-69
2021/04/21 00:11:30;;;;;;;6.03;5.22;;;10.90;89.50;18.70;99299.00;;;;5034168;28;20980;-69
2021/04/21 00:13:55;;;;;;;6.00;4.73;;;10.90;89.50;18.70;99295.00;;;;5016681;28;20297;-70
2021/04/21 00:16:21;;;;;;;6.60;5.27;;;10.90;89.50;18.70;99299.00;;;;5033482;28;20204;-69
2021/04/21 00:18:47;;;;;;;6.53;5.67;;;10.90;89.50;18.80;99297.00;;;;5033029;28;20694;-69
2021/04/21 00:21:13;;;;;;;6.23;5.23;;;10.90;89.40;18.80;99307.00;;;;5033302;28;20230;-69
2021/04/21 00:23:39;;;;;;;7.30;5.80;;;10.90;89.40;18.90;99295.00;;;;5032935;28;20193;-69
2021/04/21 00:26:12;;;;;;;6.10;5.20;;;10.80;89.20;18.80;99294.00;;;;5016972;28;20178;-69
2021/04/21 00:28:38;;;;;;;6.95;5.95;;;10.90;89.50;18.80;99275.00;;;;5016935;28;20652;-69
2021/04/21 00:31:06;;;;;;;6.43;5.53;;;10.90;89.30;18.70;99292.00;;;;5016998;28;20178;-69
2021/04/21 00:33:32;;;;;;;5.75;5.13;;;10.80;89.30;18.70;99307.00;;;;5032472;28;20708;-68
2021/04/21 00:35:58;;;;;;;6.88;5.63;;;10.80;89.30;18.80;99293.00;;;;5033073;28;20189;-69
2021/04/21 00:38:24;;;;;;;6.13;5.03;;;10.80;89.30;18.70;99290.00;;;;4999818;28;20312;-69
2021/04/21 00:41:23;;;;;;;5.63;4.80;;;10.80;89.20;18.70;99289.00;;;;5016516;28;20514;-70
2021/04/21 00:44:15;;;;;;;7.53;5.53;;;10.80;89.30;18.60;99287.00;;;;5050170;28;20189;-70
2021/04/21 00:47:01;;;;;;;6.20;5.40;;;10.80;89.30;18.60;99283.00;;;;4992540;28;20293;-70
2021/04/21 00:49:57;;;;;;;6.72;5.32;;;10.80;89.30;18.60;99282.00;;;;5018356;28;20951;-70
2021/04/21 00:52:48;;;;;;;6.88;5.00;;;10.80;89.30;18.50;99283.00;;;;5050013;28;20194;-70
2021/04/21 00:55:47;;;;;;;6.45;5.50;;;10.80;89.20;18.60;99276.00;;;;5021050;28;20607;-69
2021/04/21 00:58:47;;;;;;;7.00;5.80;;;10.80;89.30;18.50;99289.00;;;;5050901;28;20206;-69
2021/04/21 01:01:13;;;;;;;7.78;5.30;;;10.80;89.20;18.50;99284.00;;;;5035518;28;20452;-70
2021/04/21 01:03:41;;;;;;;6.30;5.07;;;10.80;89.20;18.50;99274.00;;;;5015530;28;20679;-70
2021/04/21 01:06:14;;;;;;;6.57;5.55;;;10.80;89.30;18.60;99285.00;;;;5016701;28;20280;-70
2021/04/21 01:08:51;;;;;;;7.18;5.65;;;10.80;89.20;18.50;99280.00;;;;5048303;28;20182;-69
2021/04/21 01:11:34;;;;;;;7.18;5.95;;;10.80;89.20;18.50;99283.00;;;;5017315;28;20204;-69
2021/04/21 01:14:14;;;;;;;6.13;5.20;;;10.80;89.20;18.60;99291.00;;;;5033324;28;20194;-69
2021/04/21 01:16:40;;;;;;;7.10;5.70;;;10.80;89.20;18.50;99287.00;;;;5001640;28;20861;-70
2021/04/21 01:19:49;;;;;;;6.00;5.35;;;10.80;89.20;18.50;99285.00;;;;5015999;28;20213;-69
2021/04/21 01:22:41;;;;;;;6.50;5.15;;;10.80;89.20;18.50;99281.00;;;;5048510;28;20208;-69
2021/04/21 01:25:34;;;;;;;6.10;5.20;;;10.80;89.20;18.60;99284.00;;;;5034922;28;20181;-70
2021/04/21 01:28:09;;;;;;;6.00;4.90;;;10.80;89.20;18.60;99277.00;;;;5049333;28;20534;-69
2021/04/21 01:30:38;;;;;;;6.60;5.35;;;10.80;89.20;18.50;99274.00;;;;5032690;28;20438;-69
2021/04/21 01:33:09;;;;;;;5.95;4.70;;;10.80;90.00;18.60;99280.00;;;;5047673;28;20647;-69
2021/04/21 01:35:35;;;;;;;6.80;5.40;;;10.70;89.10;18.50;99276.00;;;;5048223;28;20300;-69
2021/04/21 01:38:02;;;;;;;6.87;5.70;;;10.80;89.20;18.60;99275.00;;;;5015414;28;20544;-69
2021/04/21 01:40:35;;;;;;;6.77;5.53;;;10.80;89.20;18.60;99282.00;;;;5032008;28;20634;-69
2021/04/21 01:43:28;;;;;;;6.78;5.40;;;10.80;89.20;18.60;99285.00;;;;5016316;28;20485;-68
2021/04/21 01:45:57;;;;;;;7.00;5.70;;;10.80;89.20;18.50;99284.00;;;;5034264;28;20612;-69
2021/04/21 01:48:24;;;;;;;6.72;5.68;;;10.80;89.20;18.50;99281.00;;;;5032243;28;20248;-69
2021/04/21 01:50:51;;;;;;;6.70;5.40;;;10.70;89.10;18.50;99293.00;;;;5015278;28;20202;-68
2021/04/21 01:53:30;;;;;;;6.00;5.40;;;10.70;89.10;18.50;99293.00;;;;5015058;28;20444;-69
2021/04/21 01:56:33;;;;;;;5.75;4.88;;;10.70;89.60;18.60;99288.00;;;;5048398;28;20601;-69
2021/04/21 01:59:21;;;;;;;6.50;5.30;;;10.70;89.10;18.50;99292.00;;;;4995710;28;20242;-69
2021/04/21 02:02:01;;;;;;;6.35;5.25;;;10.70;89.10;18.50;99285.00;;;;5029962;28;20617;-68
2021/04/21 02:05:02;;;;;;;6.60;5.65;;;10.70;89.10;18.50;99290.00;;;;5033943;28;20224;-68
2021/04/21 02:08:15;;;;;;;6.13;5.28;;;10.70;89.00;18.50;99256.00;;;;5048794;28;20213;-69
2021/04/21 02:11:17;;;;;;;6.72;5.68;;;10.70;89.00;18.40;99304.00;;;;5048242;28;20606;-67
2021/04/21 02:14:24;;;;;;;6.75;5.10;;;10.70;89.00;18.40;99294.00;;;;5031678;28;20790;-69
2021/04/21 02:17:13;;;;;;;6.82;5.70;;;10.70;89.00;18.40;99292.00;;;;5049393;28;20683;-69
2021/04/21 02:20:23;;;;;;;6.85;5.45;;;10.70;89.00;18.40;99290.00;;;;5049495;28;20533;-69
2021/04/21 02:22:58;;;;;;;6.10;5.10;;;10.70;88.90;18.40;99288.00;;;;5033105;28;20201;-69
2021/04/21 02:25:59;;;;;;;6.88;5.40;;;10.70;89.00;18.40;99287.00;;;;5048000;28;20185;-69
2021/04/21 02:29:01;;;;;;;6.05;4.75;;;10.70;89.00;18.50;99265.00;;;;5034843;28;20269;-69
2021/04/21 02:32:16;;;;;;;6.50;5.40;;;10.70;89.00;18.40;99289.00;;;;5047926;28;20197;-69
2021/04/21 02:34:55;;;;;;;6.85;4.78;;;10.70;89.00;18.30;99292.00;;;;5043208;28;20225;-69
2021/04/21 02:37:44;;;;;;;6.85;5.85;;;10.70;89.00;18.50;99299.00;;;;5032802;28;20248;-70
2021/04/21 02:40:38;;;;;;;7.18;5.72;;;10.70;88.90;18.40;99304.00;;;;5016691;28;20190;-69
2021/04/21 02:44:06;;;;;;;6.90;6.05;;;10.70;88.90;18.40;99295.00;;;;5033294;28;20206;-69
2021/04/21 02:47:18;;;;;;;7.07;5.63;;;10.70;89.00;18.40;99284.00;;;;5016793;28;20229;-70
2021/04/21 02:50:07;;;;;;;6.63;5.30;;;10.70;88.90;18.30;99291.00;;;;5004041;28;20856;-69
2021/04/21 02:52:57;;;;;;;6.30;5.13;;;10.70;89.00;18.30;99289.00;;;;5031358;28;20539;-69
2021/04/21 02:55:46;;;;;;;6.00;5.30;;;10.60;88.80;18.40;99286.00;;;;5019729;28;20607;-69
2021/04/21 02:58:24;;;;;;;6.15;5.05;;;10.60;88.80;18.40;99281.00;;;;5052105;28;20291;-70
2021/04/21 03:01:09;;;;;;;6.20;5.30;;;10.60;88.80;18.30;99278.00;;;;5035330;28;20185;-70
2021/04/21 03:03:55;;;;;;;7.20;5.65;;;10.60;88.80;18.40;99278.00;;;;5020446;28;20174;-70
2021/04/21 03:06:29;;;;;;;6.45;5.35;;;10.60;88.80;18.30;99255.00;;;;5020719;28;20202;-70
2021/04/21 03:09:35;;;;;;;7.40;5.72;;;10.60;88.80;18.40;99274.00;;;;5002750;28;20640;-70
2021/04/21 03:12:01;;;;;;;6.45;5.57;;;10.60;88.80;18.30;99274.00;;;;5037834;28;20305;-70
2021/04/21 03:14:29;;;;;;;6.83;4.90;;;10.60;88.80;18.40;99285.00;;;;5002046;28;20233;-70
2021/04/21 03:16:58;;;;;;;7.03;5.47;;;10.60;88.90;18.20;99288.00;;;;5017695;28;20293;-71
2021/04/21 03:19:34;;;;;;;6.32;5.30;;;10.60;88.90;18.30;99289.00;;;;5002357;28;20487;-70
2021/04/21 03:22:13;;;;;;;5.90;5.00;;;10.60;88.90;18.30;99289.00;;;;5018514;28;20675;-71
2021/04/21 03:25:11;;;;;;;6.05;5.45;;;10.60;88.80;18.30;99289.00;;;;5050761;28;20217;-70
2021/04/21 03:27:41;;;;;;;6.70;5.05;;;10.60;88.80;18.30;99275.00;;;;5021988;28;20206;-71
2021/04/21 03:30:15;;;;;;;6.72;5.30;;;10.60;88.80;18.30;99282.00;;;;5018496;28;20190;-70
2021/04/21 03:32:51;;;;;;;6.68;5.80;;;10.60;88.70;18.30;99287.00;;;;5017929;28;20518;-70
2021/04/21 03:35:17;;;;;;;6.40;5.28;;;10.60;89.60;18.30;99242.00;;;;5018570;28;20224;-70
2021/04/21 03:38:14;;;;;;;6.50;5.60;;;10.60;88.70;18.20;99286.00;;;;5017071;28;20206;-70
2021/04/21 03:40:40;;;;;;;8.00;5.70;;;10.60;88.70;18.30;99273.00;;;;5020355;28;20178;-70
2021/04/21 03:43:06;;;;;;;6.23;5.33;;;10.60;88.70;18.30;99270.00;;;;5017286;28;20224;-69
2021/04/21 03:45:32;;;;;;;6.35;5.28;;;10.60;88.60;18.20;99274.00;;;;5033847;28;20916;-70
2021/04/21 03:47:58;;;;;;;6.53;5.60;;;10.60;88.60;18.30;99274.00;;;;5050763;28;20201;-70
2021/04/21 03:50:25;;;;;;;5.77;5.17;;;10.50;88.50;18.20;99268.00;;;;5001301;28;20220;-70
2021/04/21 03:53:07;;;;;;;7.75;5.75;;;10.50;88.50;18.30;99272.00;;;;5033784;28;21008;-70
2021/04/21 03:55:33;;;;;;;5.90;4.85;;;10.60;88.60;18.40;99274.00;;;;5018025;28;20217;-70
2021/04/21 03:58:07;;;;;;;6.57;5.60;;;10.50;88.50;18.20;99279.00;;;;5033183;28;20206;-70
2021/04/21 04:00:37;;;;;;;6.00;5.25;;;10.50;88.40;18.30;99283.00;;;;5019008;28;20192;-70
2021/04/21 04:03:08;;;;;;;5.82;5.22;;;10.50;88.40;18.30;99278.00;;;;5034269;28;20292;-70
2021/04/21 04:06:07;;;;;;;6.43;5.30;;;10.50;88.50;18.10;99251.00;;;;5049952;28;20193;-70
2021/04/21 04:08:46;;;;;;;6.28;5.55;;;10.50;88.50;18.10;99273.00;;;;5020158;28;20432;-70
2021/04/21 04:11:12;;;;;;;6.20;5.60;;;10.50;88.40;18.10;99288.00;;;;5033519;28;20288;-70
2021/04/21 04:13:40;;;;;;;6.53;5.38;;;10.50;88.40;18.20;99261.00;;;;5033435;28;20174;-70
2021/04/21 04:16:06;;;;;;;6.28;5.57;;;10.50;88.40;18.20;99289.00;;;;5017734;28;20563;-70
2021/04/21 04:18:32;;;;;;;6.00;5.10;;;10.50;88.40;18.20;99300.00;;;;5033386;28;20190;-71
2021/04/21 04:20:57;;;;;;;6.90;5.80;;;10.50;88.40;18.20;99294.00;;;;5016753;28;20258;-70
2021/04/21 04:23:23;;;;;;;6.80;5.60;;;10.50;88.40;18.00;99307.00;;;;5016681;28;20178;-72
2021/04/21 04:25:50;;;;;;;7.10;5.93;;;10.50;88.30;18.20;99289.00;;;;5000435;28;20631;-70
2021/04/21 04:28:18;;;;;;;5.78;5.18;;;10.50;88.40;18.20;99309.00;;;;5032646;28;20189;-70
2021/04/21 04:30:44;;;;;;;7.13;5.72;;;10.50;88.30;18.10;99308.00;;;;5033890;28;20178;-70
2021/04/21 04:33:10;;;;;;;7.03;5.90;;;10.50;88.40;18.00;99307.00;;;;5016248;28;20230;-70
2021/04/21 04:35:37;;;;;;;5.93;5.10;;;10.50;88.40;18.10;99316.00;;;;5049245;28;20276;-70
2021/04/21 04:38:03;;;;;;;6.55;5.20;;;10.50;89.20;18.10;99317.00;;;;5049283;28;20548;-70
2021/04/21 04:40:30;;;;;;;5.83;5.13;;;10.50;88.40;18.10;99306.00;;;;5049337;28;20170;-70
2021/04/21 04:42:56;;;;;;;6.22;5.10;;;10.50;88.40;18.00;99307.00;;;;5000118;28;20460;-70
2021/04/21 04:45:21;;;;;;;6.80;5.43;;;10.50;88.40;18.10;99314.00;;;;5016955;28;20655;-71
2021/04/21 04:47:54;;;;;;;6.40;5.63;;;10.50;88.40;18.00;99319.00;;;;5031999;28;20201;-70
2021/04/21 04:50:21;;;;;;;6.05;5.05;;;10.50;88.40;18.00;99310.00;;;;5017148;28;20178;-69
2021/04/21 04:52:50;;;;;;;6.13;5.50;;;10.50;88.40;18.10;99315.00;;;;5016216;28;20198;-69
2021/04/21 04:55:21;;;;;;;6.32;5.03;;;10.50;88.40;18.00;99317.00;;;;5016508;28;20636;-69
2021/04/21 04:57:52;;;;;;;7.00;5.32;;;10.50;88.40;18.00;99325.00;;;;5049323;28;20233;-70
2021/04/21 05:00:21;;;;;;;6.88;6.07;;;10.50;88.40;17.90;99331.00;;;;5050911;28;20701;-69
2021/04/21 05:02:55;;;;;;;6.15;5.45;;;10.50;88.40;17.80;99315.00;;;;5048296;28;20198;-70
2021/04/21 05:05:21;;;;;;;6.95;5.90;;;10.50;88.50;18.00;99332.00;;;;5033550;28;20204;-69
2021/04/21 05:08:05;;;;;;;6.87;5.80;;;10.50;88.40;18.00;99327.00;;;;5048850;28;20684;-69
2021/04/21 05:10:53;;;;;;;6.70;4.78;;;10.50;88.40;17.70;99312.00;;;;5048914;28;20182;-69
2021/04/21 05:13:21;;;;;;;7.28;5.50;;;10.50;88.50;17.90;99329.00;;;;5019334;28;20587;-69
2021/04/21 05:15:53;;;;;;;6.50;5.75;;;10.50;88.50;17.90;99338.00;;;;5015546;28;20313;-69
2021/04/21 05:19:02;;;;;;;6.93;5.88;;;10.40;88.60;18.00;99326.00;;;;5050150;28;20651;-70
2021/04/21 05:22:02;;;;;;;6.05;5.05;;;10.50;88.50;17.80;99323.00;;;;5049099;28;20206;-69
2021/04/21 05:25:07;;;;;;;6.22;5.22;;;10.50;88.50;18.00;99326.00;;;;5048727;28;20253;-69
2021/04/21 05:28:21;;;;;;;6.35;5.00;;;10.50;88.50;18.00;99325.00;;;;5049681;28;20201;-69
2021/04/21 05:31:36;;;;;;;6.40;5.63;;;10.50;88.50;17.90;99321.00;;;;5035245;28;20243;-70
2021/04/21 05:34:19;;;;;;;6.38;5.70;;;10.50;88.50;17.80;99326.00;;;;5020916;28;20954;-70
2021/04/21 05:37:08;;;;;;;7.13;5.55;;;10.50;88.60;17.80;99321.00;;;;5050107;28;20612;-70
2021/04/21 05:40:27;;;;;;;6.90;6.20;;;10.50;88.50;18.00;99335.00;;;;5048859;28;20182;-69
2021/04/21 05:43:14;;;;;;;6.53;5.35;;;10.50;88.50;17.90;99339.00;;;;5033492;28;20214;-70
2021/04/21 05:46:15;;;;;;;7.18;5.80;;;10.40;88.40;18.00;99343.00;;;;5048874;28;20174;-69
2021/04/21 05:49:32;;;;;;;5.95;5.25;;;10.40;88.40;17.70;99350.00;;;;5031623;28;20565;-69
2021/04/21 05:52:13;;;;;;;6.13;5.53;;;10.50;88.50;17.60;99343.00;;;;5015433;28;20217;-69
2021/04/21 05:55:13;;;;;;;6.38;5.20;;;10.50;88.50;18.00;99350.00;;;;5032426;28;21057;-69
2021/04/21 05:57:51;;;;;;;6.70;4.97;;;10.50;88.40;18.00;99355.00;;;;5031752;28;20229;-69
2021/04/21 06:00:44;;;;;;;6.15;4.72;;;10.50;88.40;17.80;99356.00;;;;5050264;28;20177;-69
2021/04/21 06:03:10;;;;;;;6.10;4.90;;;10.50;88.40;17.70;99354.00;;;;5048037;28;20729;-70
2021/04/21 06:05:36;;;;;;;5.93;4.97;;;10.50;88.40;17.70;99354.00;;;;5015646;28;20388;-69
2021/04/21 06:08:12;;;;;;;6.30;5.40;;;10.50;88.40;17.80;99363.00;;;;5031410;28;20290;-69
2021/04/21 06:10:38;;;;;;;4.75;4.03;;;10.50;88.40;17.70;99361.00;;;;5031523;28;20228;-70
2021/04/21 06:13:03;;;;;;;6.80;5.40;;;10.50;88.40;17.80;99366.00;;;;5049288;28;20672;-70
2021/04/21 06:15:35;;;;;;;6.70;5.60;;;10.50;88.40;17.70;99364.00;;;;5032036;28;20732;-70
2021/04/21 06:18:07;;;;;;;6.03;4.85;;;10.50;88.40;17.80;99359.00;;;;5015939;28;20529;-70
2021/04/21 06:20:38;;;;;;;6.30;5.10;;;10.50;88.30;17.70;99361.00;;;;4999844;28;20287;-69
2021/04/21 06:23:08;;;;;;;6.05;5.03;;;10.50;88.40;17.90;99370.00;;;;5049030;28;20205;-69
2021/04/21 06:25:35;;;;;;;6.70;5.38;;;10.50;88.40;17.90;99369.00;;;;5049173;28;20178;-69
2021/04/21 06:28:21;;;;;;;5.85;4.95;;;10.50;88.40;17.80;99369.00;;;;5034021;28;20255;-69
2021/04/21 06:31:09;;;;;;;6.00;4.80;;;10.50;88.40;17.80;99364.00;;;;5035904;28;20540;-69
2021/04/21 06:33:37;;;;;;;6.57;5.88;;;10.50;88.40;17.80;99365.00;;;;5037090;28;20233;-69
2021/04/21 06:36:05;;;;;;;6.13;4.80;;;10.50;88.40;18.00;99361.00;;;;5019433;28;20483;-69
2021/04/21 06:38:32;;;;;;;6.03;4.97;;;10.50;88.30;17.90;99353.00;;;;5034959;28;20187;-69
2021/04/21 06:40:58;;;;;;;5.45;4.63;;;10.50;88.30;18.00;99363.00;;;;5035367;28;20271;-69
2021/04/21 06:43:29;;;;;;;6.25;5.25;;;10.50;88.40;18.10;99360.00;;;;5052023;28;20186;-70
2021/04/21 06:45:55;;;;;;;6.55;5.35;;;10.50;88.40;18.00;99357.00;;;;5019118;28;20189;-70
2021/04/21 06:48:35;;;;;;;6.20;4.50;;;10.50;88.40;18.20;99343.00;;;;5034909;28;20175;-70
2021/04/21 06:51:15;;;;;;;5.70;4.93;;;10.50;88.40;18.10;99344.00;;;;5003135;28;20415;-69
2021/04/21 06:53:45;;;;;;;5.70;4.70;;;10.50;88.30;18.10;99351.00;;;;5052528;28;20220;-69
2021/04/21 06:56:11;;;;;;;5.95;4.70;;;10.50;88.30;18.10;99361.00;;;;5053850;28;20213;-70
2021/04/21 06:58:39;;;;;;;6.43;4.93;;;10.50;88.40;18.10;99350.00;;;;5069943;28;20181;-69
2021/04/21 07:01:13;;;;;;;6.15;4.93;;;10.50;88.30;18.20;99345.00;;;;5070715;28;20470;-70
2021/04/21 07:03:40;;;;;;;5.97;4.88;;;10.50;89.20;18.20;99346.00;;;;5070463;28;20670;-70
2021/04/21 07:06:06;;;;;;;5.20;4.30;;;10.50;88.40;18.10;99344.00;;;;5070549;28;20169;-70
2021/04/21 07:08:33;;;;;;;5.73;4.50;;;10.50;88.40;18.00;99353.00;;;;5070313;28;20435;-70
2021/04/21 07:11:00;;;;;;;5.65;4.70;;;10.50;88.30;18.10;99352.00;;;;5069855;28;20440;-70
2021/04/21 07:13:31;;;;;;;5.20;4.60;;;10.50;88.40;18.10;99358.00;;;;5054340;28;20189;-70
2021/04/21 07:16:05;;;;;;;5.63;4.60;;;10.50;88.30;18.10;99352.00;;;;5070304;28;20298;-70
2021/04/21 07:18:39;;;;;;;5.20;4.20;;;10.50;88.30;18.00;99324.00;;;;5039534;28;20211;-70
2021/04/21 07:21:06;;;;;;;5.43;4.20;;;10.50;88.30;18.00;99352.00;;;;5054018;28;20173;-70
2021/04/21 07:23:32;;;;;;;6.03;4.43;;;10.50;88.40;18.00;99363.00;;;;5036685;28;20184;-70
2021/04/21 07:25:58;;;;;;;6.50;4.40;;;10.50;88.30;17.90;99361.00;;;;5036188;28;20186;-70
2021/04/21 07:28:24;;;;;;;6.13;4.83;;;10.50;88.30;18.10;99364.00;;;;5054413;28;20234;-71
2021/04/21 07:30:53;;;;;;;5.53;4.67;;;10.50;88.30;18.10;99374.00;;;;5054277;28;20185;-70
2021/04/21 07:33:37;;;;;;;5.63;4.57;;;10.50;88.30;18.00;99363.00;;;;5038017;28;20963;-70
2021/04/21 07:36:14;;;;;;;5.10;4.28;;;10.50;88.30;18.00;99371.00;;;;5052847;28;20216;-70
2021/04/21 07:38:54;;;;;;;5.45;4.43;;;10.50;88.20;18.10;99370.00;;;;5060981;28;20216;-70
2021/04/21 07:41:37;;;;;;;5.78;4.80;;;10.50;88.20;18.10;99369.00;;;;5071885;28;20209;-70
2021/04/21 07:44:04;;;;;;;6.05;4.60;;;10.50;88.20;18.10;99377.00;;;;5070242;28;20181;-70
2021/04/21 07:46:30;;;;;;;5.20;4.40;;;10.50;88.10;18.00;99365.00;;;;5069528;28;20205;-70
2021/04/21 07:48:57;;;;;;;5.17;4.57;;;10.50;88.10;18.10;99367.00;;;;5070718;28;20469;-70
2021/04/21 07:51:25;;;;;;;5.22;4.40;;;10.50;88.10;18.20;99372.00;;;;5052950;28;20675;-70
2021/04/21 07:54:23;;;;;;;5.27;4.17;;;10.50;88.10;18.20;99372.00;;;;5071819;28;20188;-70
2021/04/21 07:56:59;;;;;;;5.40;4.10;;;10.50;88.00;18.20;99369.00;;;;5053535;28;20736;-70
2021/04/21 07:59:26;;;;;;;5.15;4.35;;;10.50;88.00;18.10;99372.00;;;;5070294;28;20650;-70
2021/04/21 08:01:53;;;;;;;5.53;4.22;;;10.60;88.10;18.10;99359.00;;;;5070522;28;20205;-71
2021/04/21 08:04:26;;;;;;;6.20;4.78;;;10.50;88.10;18.20;99368.00;;;;5069715;28;20723;-71
2021/04/21 08:07:00;;;;;;;5.90;5.07;;;10.60;88.10;18.10;99373.00;;;;5071918;28;20275;-71
2021/04/21 08:09:33;;;;;;;4.47;3.70;;;10.60;88.10;18.10;99366.00;;;;5053349;28;20435;-71
2021/04/21 08:12:07;;;;;;;5.70;4.78;;;10.60;88.10;18.10;99370.00;;;;5069872;28;20455;-71
2021/04/21 08:14:42;;;;;;;4.88;3.65;;;10.60;88.10;18.10;99369.00;;;;5069788;28;20209;-71
2021/04/21 08:17:08;;;;;;;5.72;4.20;;;10.60;88.10;18.10;99366.00;;;;5053385;28;20250;-71
2021/04/21 08:19:39;;;;;;;5.00;4.07;;;10.60;88.10;18.00;99381.00;;;;5069269;28;20709;-71
2021/04/21 08:22:06;;;;;;;5.47;4.38;;;10.60;88.10;18.00;99366.00;;;;5070261;28;20201;-71
2021/04/21 08:24:45;;;;;;;4.97;3.70;;;10.60;88.20;18.10;99382.00;;;;5069714;28;20181;-71
2021/04/21 08:27:15;;;;;;;6.30;4.57;;;10.60;88.10;18.10;99369.00;;;;5069098;28;20201;-71
2021/04/21 08:29:45;;;;;;;5.70;4.28;;;10.60;88.10;18.00;99374.00;;;;5069147;28;20205;-72
2021/04/21 08:32:16;;;;;;;5.70;4.55;;;10.60;88.10;17.90;99376.00;;;;5069315;28;20582;-72
2021/04/21 08:34:43;;;;;;;4.50;3.47;;;10.60;88.10;17.90;99384.00;;;;5069360;28;20655;-71
2021/04/21 08:37:09;;;;;;;5.43;4.30;;;10.60;88.10;17.90;99345.00;;;;5069850;28;20246;-71
2021/04/21 08:39:36;;;;;;;5.82;4.35;;;10.60;88.10;18.00;99368.00;;;;5052026;28;20553;-72
2021/04/21 08:42:02;;;;;;;4.70;3.60;;;10.60;88.10;18.00;99381.00;;;;5069029;28;20212;-71
2021/04/21 08:44:32;;;;;;;5.23;4.10;;;10.60;88.10;17.90;99361.00;;;;5052985;28;20173;-72
2021/04/21 08:46:59;;;;;;;5.60;4.50;;;10.60;88.10;18.10;99364.00;;;;5069496;28;20288;-72
2021/04/21 08:49:29;;;;;;;4.50;3.97;;;10.60;88.10;18.00;99373.00;;;;5053407;28;20250;-72
2021/04/21 08:51:55;;;;;;;5.30;4.10;;;10.60;88.20;18.20;99373.00;;;;5068549;28;20964;-71
2021/04/21 08:54:22;;;;;;;5.70;4.17;;;10.60;88.10;18.10;99360.00;;;;5068802;28;20216;-72
2021/04/21 08:56:48;;;;;;;5.05;4.03;;;10.60;88.10;18.10;99376.00;;;;5068955;28;20693;-72
2021/04/21 08:59:15;;;;;;;5.63;4.33;;;10.60;88.10;18.10;99366.00;;;;5069391;28;20181;-72
2021/04/21 09:01:45;;;;;;;4.75;3.40;;;10.70;88.30;18.10;99359.00;;;;5052068;28;20193;-71
2021/04/21 09:04:12;;;;;;;5.90;4.90;;;10.60;88.10;18.20;99359.00;;;;5069781;28;20181;-71
2021/04/21 09:06:38;;;;;;;5.35;3.83;;;10.60;88.10;18.20;99365.00;;;;5052007;28;20562;-72
2021/04/21 09:09:03;;;;;;;5.03;3.63;;;10.60;88.10;18.30;99367.00;;;;5068794;28;20170;-72
2021/04/21 09:11:29;;;;;;;5.57;4.23;;;10.60;88.10;18.10;99374.00;;;;5068130;28;20744;-72
2021/04/21 09:13:55;;;;;;;5.60;3.90;;;10.70;88.30;18.20;99365.00;;;;5069162;28;20212;-71
2021/04/21 09:16:21;;;;;;;5.10;3.83;;;10.70;88.30;18.20;99372.00;;;;5068324;28;20204;-72
2021/04/21 09:18:46;;;;;;;5.30;4.10;;;10.70;88.30;18.20;99370.00;;;;5065635;28;20181;-72
2021/04/21 09:21:21;;;;;;;5.00;3.70;;;10.70;88.30;18.20;99361.00;;;;5067675;28;20209;-72
2021/04/21 09:23:47;;;;;;;4.88;3.83;;;10.70;88.30;18.30;99359.00;;;;5052398;28;20169;-72
2021/04/21 09:26:17;;;;;;;5.28;3.70;;;10.70;88.30;18.20;99367.00;;;;5067756;28;20204;-72
2021/04/21 09:28:49;;;;;;;5.97;4.30;;;10.70;88.50;18.20;99359.00;;;;5069832;28;20181;-72
2021/04/21 09:31:23;;;;;;;5.53;4.70;;;10.70;88.30;18.30;99360.00;;;;5067812;28;20422;-71
2021/04/21 09:34:15;;;;;;;21.48;10.98;;;10.70;88.40;18.50;99349.00;;;;5066861;28;20966;-71
2021/04/21 09:36:43;;;;;;;18.27;16.40;;;10.70;89.50;18.80;99351.00;;;;5054612;28;20552;-71
2021/04/21 09:39:13;;;;;;;24.20;21.70;;;10.80;90.30;18.90;99343.00;;;;5068582;28;20794;-71
2021/04/21 09:41:40;;;;;;;26.07;23.37;;;10.90;90.90;19.10;99336.00;;;;5067265;28;20449;-71
2021/04/21 09:44:30;;;;;;;24.93;22.53;;;11.00;91.30;19.00;99341.00;;;;5051837;28;20414;-71
2021/04/21 09:46:57;;;;;;;24.07;21.67;;;11.00;91.20;19.00;99348.00;;;;5067440;28;20425;-72
2021/04/21 09:49:38;;;;;;;25.07;22.57;;;11.10;91.90;19.10;99349.00;;;;5051505;28;20440;-72
2021/04/21 09:52:13;;;;;;;23.43;20.97;;;11.10;91.70;19.10;99342.00;;;;5051462;28;20495;-71
2021/04/21 09:54:42;;;;;;;26.67;23.97;;;11.10;91.80;19.20;99339.00;;;;5069027;28;20791;-71
2021/04/21 09:57:16;;;;;;;26.37;23.60;;;11.10;91.90;19.20;99343.00;;;;5034161;28;20445;-71
2021/04/21 09:59:52;;;;;;;26.27;21.87;;;11.10;91.90;19.40;99347.00;;;;5051895;28;20555;-71
2021/04/21 10:02:36;;;;;;;23.10;20.60;;;11.20;92.00;19.30;99337.00;;;;5037197;28;21031;-71
2021/04/21 10:05:33;;;;;;;23.63;21.23;;;11.20;91.90;19.30;99333.00;;;;5056147;28;20474;-71
2021/04/21 10:08:10;;;;;;;24.40;21.90;;;11.20;91.90;19.40;99329.00;;;;5073964;28;20448;-72
2021/04/21 10:10:36;;;;;;;23.33;20.97;;;11.30;91.90;19.40;99321.00;;;;5073828;28;20437;-71
2021/04/21 10:13:16;;;;;;;24.20;21.77;;;11.30;91.90;19.40;99326.00;;;;5039098;28;20937;-71
2021/04/21 10:15:43;;;;;;;24.50;21.87;;;11.30;92.00;19.50;99313.00;;;;5055675;28;20453;-71
2021/04/21 10:18:11;;;;;;;27.10;21.40;;;11.40;92.10;19.40;99321.00;;;;5055928;28;20820;-71
2021/04/21 10:20:37;;;;;;;25.00;22.30;;;11.40;92.20;19.60;99322.00;;;;5038380;28;20459;-71
2021/04/21 10:23:05;;;;;;;23.93;21.37;;;11.40;92.10;19.60;99323.00;;;;5070977;28;20911;-71
2021/04/21 10:25:31;;;;;;;23.53;21.10;;;11.40;92.10;19.70;99314.00;;;;5038226;28;20397;-71
2021/04/21 10:27:57;;;;;;;23.20;20.90;;;11.50;92.10;19.70;99315.00;;;;5054815;28;20976;-72
2021/04/21 10:30:24;;;;;;;22.83;20.53;;;11.50;92.10;19.50;99315.00;;;;5054680;28;20450;-72
2021/04/21 10:32:49;;;;;;;23.40;21.00;;;11.50;92.00;19.70;99320.00;;;;5054159;28;20458;-71
2021/04/21 10:35:15;;;;;;;23.27;20.80;;;11.60;92.10;19.70;99304.00;;;;5055458;28;21015;-72
2021/04/21 10:37:41;;;;;;;22.47;20.17;;;11.60;92.00;19.90;99298.00;;;;5054528;28;20690;-72
2021/04/21 10:40:11;;;;;;;24.00;21.63;;;11.60;91.90;19.90;99264.00;;;;5055287;28;20185;-72
2021/04/21 10:43:09;;;;;;;22.83;20.53;;;11.70;91.90;20.00;99307.00;;;;5038815;28;20825;-72
2021/04/21 10:45:49;;;;;;;21.80;19.70;;;11.70;91.80;19.90;99294.00;;;;5000974;28;20519;-72
2021/04/21 10:48:47;;;;;;;22.10;19.90;;;11.70;91.80;20.10;99300.00;;;;5055474;28;20431;-72
2021/04/21 10:51:36;;;;;;;24.17;21.87;;;11.80;91.80;20.10;99293.00;;;;5071080;28;20455;-71
2021/04/21 10:54:07;;;;;;;22.07;19.80;;;11.80;91.80;20.00;99276.00;;;;5054780;28;20479;-72
2021/04/21 10:56:33;;;;;;;20.70;18.70;;;11.80;91.80;20.20;99290.00;;;;5070784;28;20461;-71
2021/04/21 10:59:00;;;;;;;21.83;19.53;;;11.90;91.80;20.30;99295.00;;;;5054352;28;20450;-71
2021/04/21 11:01:37;;;;;;;21.80;19.60;;;11.90;91.80;20.30;99291.00;;;;5070437;28;20429;-71
2021/04/21 11:04:05;;;;;;;22.53;20.20;;;11.90;91.80;20.20;99284.00;;;;5021899;28;20439;-71
2021/04/21 11:06:40;;;;;;;20.80;18.70;;;12.00;91.80;20.30;99296.00;;;;5054353;28;20462;-71
2021/04/21 11:09:07;;;;;;;22.60;19.77;;;12.00;91.70;20.40;99289.00;;;;5068631;28;20451;-73
2021/04/21 11:11:48;;;;;;;22.50;20.20;;;12.00;91.60;20.30;99277.00;;;;5070448;28;20525;-71
2021/04/21 11:14:20;;;;;;;22.57;20.17;;;12.10;91.60;20.30;99252.00;;;;5053259;28;20414;-71
2021/04/21 11:16:45;;;;;;;22.23;20.03;;;12.10;91.60;20.30;99283.00;;;;5053028;28;20501;-71
2021/04/21 11:19:17;;;;;;;24.47;21.97;;;12.10;91.70;20.30;99273.00;;;;5037782;28;20436;-71
2021/04/21 11:21:43;;;;;;;22.07;19.77;;;12.10;91.70;20.50;99273.00;;;;5071375;28;20229;-71
2021/04/21 11:24:10;;;;;;;24.97;22.33;;;12.20;91.70;20.50;99264.00;;;;5069898;28;20450;-72
2021/04/21 11:26:37;;;;;;;22.70;20.27;;;12.20;91.70;20.50;99273.00;;;;5070343;28;20945;-72
2021/04/21 11:29:18;;;;;;;23.87;21.37;;;12.20;91.60;20.50;99254.00;;;;5053820;28;20839;-71
2021/04/21 11:31:44;;;;;;;22.93;20.47;;;12.20;91.40;20.70;99272.00;;;;5070065;28;20434;-72